sensor_id;sensor_type;location;lat;lon;timestamp;pressure;altitude;pressure_sealevel;temperature;humidity
62025;BME280;47978;49.118;12.146;2023-06-19T00:00:28;97150.03;;;13.65;67.69
62025;BME280;47978;49.118;12.146;2023-06-19T00:04:31;97151.22;;;13.55;67.95
62025;BME280;47978;49.118;12.146;2023-06-19T00:08:32;97151.09;;;13.43;68.78
62025;BME280;47978;49.118;12.146;2023-06-19T00:12:34;97155.31;;;13.58;69.61
62025;BME280;47978;49.118;12.146;2023-06-19T00:16:36;97141.75;;;13.56;68.66
62025;BME280;47978;49.118;12.146;2023-06-19T00:20:39;97146.25;;;13.31;69.58
62025;BME280;47978;49.118;12.146;2023-06-19T00:24:41;97149.16;;;13.35;69.84
62025;BME280;47978;49.118;12.146;2023-06-19T00:28:42;97144.78;;;13.34;69.75
62025;BME280;47978;49.118;12.146;2023-06-19T00:32:44;97145.50;;;13.52;70.57
62025;BME280;47978;49.118;12.146;2023-06-19T00:36:47;97149.91;;;13.61;69.41
62025;BME280;47978;49.118;12.146;2023-06-19T00:40:48;97148.88;;;13.66;69.19
62025;BME280;47978;49.118;12.146;2023-06-19T00:44:50;97168.63;;;13.73;68.52
62025;BME280;47978;49.118;12.146;2023-06-19T00:48:52;97172.28;;;13.94;69.00
62025;BME280;47978;49.118;12.146;2023-06-19T00:52:55;97159.63;;;13.76;68.75
62025;BME280;47978;49.118;12.146;2023-06-19T00:56:56;97154.38;;;13.45;69.83
62025;BME280;47978;49.118;12.146;2023-06-19T01:00:58;97149.84;;;13.32;70.52
62025;BME280;47978;49.118;12.146;2023-06-19T01:05:10;97150.66;;;13.41;70.23
62025;BME280;47978;49.118;12.146;2023-06-19T01:09:16;97150.94;;;13.48;70.54
62025;BME280;47978;49.118;12.146;2023-06-19T01:13:22;97153.06;;;13.42;70.96
62025;BME280;47978;49.118;12.146;2023-06-19T01:17:26;97138.72;;;13.23;72.04
62025;BME280;47978;49.118;12.146;2023-06-19T01:21:28;97125.50;;;13.28;71.41
62025;BME280;47978;49.118;12.146;2023-06-19T01:25:31;97118.34;;;13.27;71.05
62025;BME280;47978;49.118;12.146;2023-06-19T01:29:32;97121.75;;;13.33;70.44
62025;BME280;47978;49.118;12.146;2023-06-19T01:33:36;97126.78;;;13.40;71.91
62025;BME280;47978;49.118;12.146;2023-06-19T01:37:40;97122.91;;;13.32;72.46
62025;BME280;47978;49.118;12.146;2023-06-19T01:41:44;97136.16;;;13.26;72.00
62025;BME280;47978;49.118;12.146;2023-06-19T01:45:46;97138.66;;;13.02;72.83
62025;BME280;47978;49.118;12.146;2023-06-19T01:49:48;97140.47;;;12.98;72.80
62025;BME280;47978;49.118;12.146;2023-06-19T01:53:50;97140.94;;;13.00;73.00
62025;BME280;47978;49.118;12.146;2023-06-19T01:57:53;97141.06;;;13.21;73.21
62025;BME280;47978;49.118;12.146;2023-06-19T02:01:55;97151.63;;;13.36;72.88
62025;BME280;47978;49.118;12.146;2023-06-19T02:05:56;97151.03;;;13.13;72.49
62025;BME280;47978;49.118;12.146;2023-06-19T02:09:58;97151.56;;;12.80;73.55
62025;BME280;47978;49.118;12.146;2023-06-19T02:14:01;97155.69;;;12.74;73.98
62025;BME280;47978;49.118;12.146;2023-06-19T02:18:03;97156.97;;;12.77;74.37
62025;BME280;47978;49.118;12.146;2023-06-19T02:22:05;97149.47;;;12.77;74.52
62025;BME280;47978;49.118;12.146;2023-06-19T02:26:07;97160.56;;;12.77;74.90
62025;BME280;47978;49.118;12.146;2023-06-19T02:30:10;97162.31;;;12.99;73.84
62025;BME280;47978;49.118;12.146;2023-06-19T02:34:12;97157.28;;;13.01;74.82
62025;BME280;47978;49.118;12.146;2023-06-19T02:38:14;97162.91;;;13.22;74.09
62025;BME280;47978;49.118;12.146;2023-06-19T02:42:15;97166.19;;;13.33;74.13
62025;BME280;47978;49.118;12.146;2023-06-19T02:46:18;97164.66;;;13.44;74.05
62025;BME280;47978;49.118;12.146;2023-06-19T02:50:20;97177.84;;;13.56;73.43
62025;BME280;47978;49.118;12.146;2023-06-19T02:54:22;97183.56;;;13.60;73.84
62025;BME280;47978;49.118;12.146;2023-06-19T02:58:24;97187.31;;;13.64;73.80
62025;BME280;47978;49.118;12.146;2023-06-19T03:02:27;97197.16;;;13.53;73.80
62025;BME280;47978;49.118;12.146;2023-06-19T03:06:28;97199.22;;;13.64;73.47
62025;BME280;47978;49.118;12.146;2023-06-19T03:10:30;97202.00;;;13.64;73.79
62025;BME280;47978;49.118;12.146;2023-06-19T03:14:32;97194.63;;;13.68;73.75
62025;BME280;47978;49.118;12.146;2023-06-19T03:18:35;97201.97;;;13.73;73.90
62025;BME280;47978;49.118;12.146;2023-06-19T03:22:36;97209.47;;;13.81;73.39
62025;BME280;47978;49.118;12.146;2023-06-19T03:26:38;97224.09;;;14.29;72.48
62025;BME280;47978;49.118;12.146;2023-06-19T03:30:39;97215.31;;;14.18;72.91
62025;BME280;47978;49.118;12.146;2023-06-19T03:34:42;97237.66;;;14.51;71.87
62025;BME280;47978;49.118;12.146;2023-06-19T03:38:44;97246.22;;;14.46;72.02
62025;BME280;47978;49.118;12.146;2023-06-19T03:42:45;97229.84;;;14.45;72.42
62025;BME280;47978;49.118;12.146;2023-06-19T03:46:47;97214.09;;;14.28;74.49
62025;BME280;47978;49.118;12.146;2023-06-19T03:50:50;97217.81;;;14.61;73.82
62025;BME280;47978;49.118;12.146;2023-06-19T03:54:52;97218.16;;;14.60;74.21
62025;BME280;47978;49.118;12.146;2023-06-19T03:58:53;97224.47;;;14.69;74.96
62025;BME280;47978;49.118;12.146;2023-06-19T04:02:55;97220.59;;;14.61;74.95
62025;BME280;47978;49.118;12.146;2023-06-19T04:06:58;97230.38;;;14.89;73.93
62025;BME280;47978;49.118;12.146;2023-06-19T04:10:59;97229.28;;;14.81;74.53
62025;BME280;47978;49.118;12.146;2023-06-19T04:15:01;97244.06;;;14.94;73.34
62025;BME280;47978;49.118;12.146;2023-06-19T04:19:03;97255.81;;;15.20;73.52
62025;BME280;47978;49.118;12.146;2023-06-19T04:23:06;97261.53;;;15.36;72.40
62025;BME280;47978;49.118;12.146;2023-06-19T04:27:07;97262.09;;;15.29;74.42
62025;BME280;47978;49.118;12.146;2023-06-19T04:31:09;97269.97;;;15.48;75.91
62025;BME280;47978;49.118;12.146;2023-06-19T04:35:10;97261.22;;;15.17;79.68
62025;BME280;47978;49.118;12.146;2023-06-19T04:39:13;97252.44;;;14.73;83.57
62025;BME280;47978;49.118;12.146;2023-06-19T04:43:15;97249.38;;;14.66;84.36
62025;BME280;47978;49.118;12.146;2023-06-19T04:47:18;97249.31;;;14.74;86.36
62025;BME280;47978;49.118;12.146;2023-06-19T04:51:19;97237.50;;;14.56;88.87
62025;BME280;47978;49.118;12.146;2023-06-19T04:55:22;97232.06;;;14.81;89.34
62025;BME280;47978;49.118;12.146;2023-06-19T04:59:24;97237.25;;;14.40;94.21
62025;BME280;47978;49.118;12.146;2023-06-19T05:03:26;97227.19;;;14.48;94.54
62025;BME280;47978;49.118;12.146;2023-06-19T05:07:27;97225.28;;;14.70;93.69
62025;BME280;47978;49.118;12.146;2023-06-19T05:11:30;97228.25;;;15.06;91.32
62025;BME280;47978;49.118;12.146;2023-06-19T05:15:32;97226.69;;;15.30;91.74
62025;BME280;47978;49.118;12.146;2023-06-19T05:19:33;97228.50;;;15.59;85.89
62025;BME280;47978;49.118;12.146;2023-06-19T05:23:35;97225.47;;;15.85;87.63
62025;BME280;47978;49.118;12.146;2023-06-19T05:27:38;97232.88;;;16.18;87.14
62025;BME280;47978;49.118;12.146;2023-06-19T05:31:39;97238.81;;;16.41;88.55
62025;BME280;47978;49.118;12.146;2023-06-19T05:35:41;97240.75;;;16.77;86.65
62025;BME280;47978;49.118;12.146;2023-06-19T05:39:43;97251.75;;;17.26;86.07
62025;BME280;47978;49.118;12.146;2023-06-19T05:43:46;97255.72;;;17.25;84.76
62025;BME280;47978;49.118;12.146;2023-06-19T05:47:47;97261.81;;;17.43;81.18
62025;BME280;47978;49.118;12.146;2023-06-19T05:51:49;97258.44;;;17.66;82.21
62025;BME280;47978;49.118;12.146;2023-06-19T05:55:50;97257.78;;;17.85;82.69
62025;BME280;47978;49.118;12.146;2023-06-19T05:59:53;97260.88;;;18.47;81.32
62025;BME280;47978;49.118;12.146;2023-06-19T06:03:55;97254.97;;;19.03;75.43
62025;BME280;47978;49.118;12.146;2023-06-19T06:07:56;97271.94;;;19.88;74.60
62025;BME280;47978;49.118;12.146;2023-06-19T06:11:58;97277.09;;;20.09;73.11
62025;BME280;47978;49.118;12.146;2023-06-19T06:16:01;97271.53;;;19.89;71.46
62025;BME280;47978;49.118;12.146;2023-06-19T06:20:02;97275.84;;;20.06;68.82
62025;BME280;47978;49.118;12.146;2023-06-19T06:24:05;97283.84;;;20.04;66.14
62025;BME280;47978;49.118;12.146;2023-06-19T06:28:06;97284.78;;;20.12;67.85
62025;BME280;47978;49.118;12.146;2023-06-19T06:32:09;97291.78;;;19.98;68.17
62025;BME280;47978;49.118;12.146;2023-06-19T06:36:11;97300.69;;;20.04;68.45
62025;BME280;47978;49.118;12.146;2023-06-19T06:40:26;97318.31;;;19.62;67.91
62025;BME280;47978;49.118;12.146;2023-06-19T06:44:27;97344.81;;;20.04;67.75
62025;BME280;47978;49.118;12.146;2023-06-19T06:48:30;97343.00;;;22.05;60.38
62025;BME280;47978;49.118;12.146;2023-06-19T06:52:32;97349.75;;;24.10;54.88
62025;BME280;47978;49.118;12.146;2023-06-19T06:56:33;97350.28;;;25.16;49.91
62025;BME280;47978;49.118;12.146;2023-06-19T07:00:35;97352.91;;;27.17;42.87
62025;BME280;47978;49.118;12.146;2023-06-19T07:04:38;97349.41;;;27.82;42.05
62025;BME280;47978;49.118;12.146;2023-06-19T07:08:39;97344.50;;;29.45;38.58
62025;BME280;47978;49.118;12.146;2023-06-19T07:12:45;97344.31;;;31.21;35.32
62025;BME280;47978;49.118;12.146;2023-06-19T07:16:48;97345.53;;;30.70;34.85
62025;BME280;47978;49.118;12.146;2023-06-19T07:20:51;97346.28;;;29.58;36.57
62025;BME280;47978;49.118;12.146;2023-06-19T07:24:53;97337.63;;;30.42;35.09
62025;BME280;47978;49.118;12.146;2023-06-19T07:28:54;97338.06;;;29.17;38.04
62025;BME280;47978;49.118;12.146;2023-06-19T07:32:56;97329.03;;;29.22;35.36
62025;BME280;47978;49.118;12.146;2023-06-19T07:36:59;97319.88;;;29.11;42.35
62025;BME280;47978;49.118;12.146;2023-06-19T07:41:01;97323.94;;;27.71;43.41
62025;BME280;47978;49.118;12.146;2023-06-19T07:45:03;97321.72;;;27.89;37.52
62025;BME280;47978;49.118;12.146;2023-06-19T07:49:04;97325.31;;;28.24;38.57
62025;BME280;47978;49.118;12.146;2023-06-19T07:53:07;97326.94;;;29.70;35.18
62025;BME280;47978;49.118;12.146;2023-06-19T07:57:09;97314.22;;;33.09;30.96
62025;BME280;47978;49.118;12.146;2023-06-19T08:01:11;97329.34;;;31.17;31.65
62025;BME280;47978;49.118;12.146;2023-06-19T08:05:12;97321.97;;;29.30;35.04
62025;BME280;47978;49.118;12.146;2023-06-19T08:09:15;97327.94;;;29.16;33.62
62025;BME280;47978;49.118;12.146;2023-06-19T08:13:17;97328.06;;;29.09;34.56
62025;BME280;47978;49.118;12.146;2023-06-19T08:17:18;97343.41;;;27.34;36.29
62025;BME280;47978;49.118;12.146;2023-06-19T08:21:20;97336.66;;;27.21;37.75
62025;BME280;47978;49.118;12.146;2023-06-19T08:25:23;97341.53;;;27.58;37.08
62025;BME280;47978;49.118;12.146;2023-06-19T08:29:24;97335.84;;;26.72;38.63
62025;BME280;47978;49.118;12.146;2023-06-19T08:33:26;97339.56;;;26.62;39.43
62025;BME280;47978;49.118;12.146;2023-06-19T08:37:28;97342.94;;;26.98;40.08
62025;BME280;47978;49.118;12.146;2023-06-19T08:41:30;97348.94;;;26.55;40.19
62025;BME280;47978;49.118;12.146;2023-06-19T08:45:32;97345.72;;;26.46;40.75
62025;BME280;47978;49.118;12.146;2023-06-19T08:49:34;97353.56;;;26.28;40.85
62025;BME280;47978;49.118;12.146;2023-06-19T08:53:43;97359.03;;;25.79;39.96
62025;BME280;47978;49.118;12.146;2023-06-19T08:57:48;97367.22;;;25.45;40.96
62025;BME280;47978;49.118;12.146;2023-06-19T09:01:51;97388.28;;;25.22;43.04
62025;BME280;47978;49.118;12.146;2023-06-19T09:05:54;97393.50;;;24.63;44.82
62025;BME280;47978;49.118;12.146;2023-06-19T09:09:55;97380.19;;;24.92;45.27
62025;BME280;47978;49.118;12.146;2023-06-19T09:13:58;97384.91;;;24.27;46.31
62025;BME280;47978;49.118;12.146;2023-06-19T09:18:04;97389.75;;;24.23;46.65
62025;BME280;47978;49.118;12.146;2023-06-19T09:22:07;97384.19;;;24.73;46.20
62025;BME280;47978;49.118;12.146;2023-06-19T09:26:09;97385.84;;;24.71;46.52
62025;BME280;47978;49.118;12.146;2023-06-19T09:30:14;97387.44;;;24.89;47.46
62025;BME280;47978;49.118;12.146;2023-06-19T09:34:16;97397.97;;;24.85;46.29
62025;BME280;47978;49.118;12.146;2023-06-19T09:38:19;97401.47;;;24.32;48.02
62025;BME280;47978;49.118;12.146;2023-06-19T09:42:26;97393.09;;;24.61;47.70
62025;BME280;47978;49.118;12.146;2023-06-19T09:46:32;97391.88;;;24.55;48.06
62025;BME280;47978;49.118;12.146;2023-06-19T09:50:38;97399.16;;;24.66;49.21
62025;BME280;47978;49.118;12.146;2023-06-19T09:54:41;97392.91;;;24.04;49.93
62025;BME280;47978;49.118;12.146;2023-06-19T09:58:43;97401.59;;;23.70;50.39
62025;BME280;47978;49.118;12.146;2023-06-19T10:02:48;97390.56;;;24.23;49.86
62025;BME280;47978;49.118;12.146;2023-06-19T10:06:50;97385.31;;;24.26;49.62
62025;BME280;47978;49.118;12.146;2023-06-19T10:10:55;97380.16;;;24.45;49.50
62025;BME280;47978;49.118;12.146;2023-06-19T10:14:56;97391.31;;;24.02;50.75
62025;BME280;47978;49.118;12.146;2023-06-19T10:18:59;97392.28;;;24.57;50.75
62025;BME280;47978;49.118;12.146;2023-06-19T10:23:05;97389.78;;;24.41;51.43
62025;BME280;47978;49.118;12.146;2023-06-19T10:27:07;97383.22;;;24.05;52.09
62025;BME280;47978;49.118;12.146;2023-06-19T10:31:08;97372.25;;;23.82;54.21
62025;BME280;47978;49.118;12.146;2023-06-19T10:35:12;97386.78;;;23.87;53.30
62025;BME280;47978;49.118;12.146;2023-06-19T10:39:14;97381.06;;;23.73;54.37
62025;BME280;47978;49.118;12.146;2023-06-19T10:43:19;97388.53;;;24.24;54.34
62025;BME280;47978;49.118;12.146;2023-06-19T10:47:22;97379.34;;;24.45;52.43
62025;BME280;47978;49.118;12.146;2023-06-19T10:51:25;97386.22;;;24.69;52.68
62025;BME280;47978;49.118;12.146;2023-06-19T10:55:27;97389.41;;;25.64;50.84
62025;BME280;47978;49.118;12.146;2023-06-19T10:59:29;97386.06;;;25.98;49.17
62025;BME280;47978;49.118;12.146;2023-06-19T11:03:31;97373.50;;;26.06;48.99
62025;BME280;47978;49.118;12.146;2023-06-19T11:07:35;97374.84;;;25.73;49.05
62025;BME280;47978;49.118;12.146;2023-06-19T11:11:37;97378.19;;;26.41;47.96
62025;BME280;47978;49.118;12.146;2023-06-19T11:15:39;97370.13;;;26.33;49.02
62025;BME280;47978;49.118;12.146;2023-06-19T11:19:41;97372.44;;;26.56;48.13
62025;BME280;47978;49.118;12.146;2023-06-19T11:23:47;97366.41;;;25.48;48.63
62025;BME280;47978;49.118;12.146;2023-06-19T11:27:49;97371.97;;;25.76;50.01
62025;BME280;47978;49.118;12.146;2023-06-19T11:31:51;97369.06;;;25.98;50.19
62025;BME280;47978;49.118;12.146;2023-06-19T11:35:54;97370.38;;;25.68;50.29
62025;BME280;47978;49.118;12.146;2023-06-19T11:39:57;97372.34;;;25.78;49.42
62025;BME280;47978;49.118;12.146;2023-06-19T11:43:59;97371.25;;;25.40;50.14
62025;BME280;47978;49.118;12.146;2023-06-19T11:48:04;97368.88;;;26.37;47.72
62025;BME280;47978;49.118;12.146;2023-06-19T11:52:06;97361.97;;;25.04;50.16
62025;BME280;47978;49.118;12.146;2023-06-19T11:56:09;97347.69;;;25.79;48.88
62025;BME280;47978;49.118;12.146;2023-06-19T12:00:15;97337.16;;;25.79;47.71
62025;BME280;47978;49.118;12.146;2023-06-19T12:04:17;97333.53;;;26.56;47.44
62025;BME280;47978;49.118;12.146;2023-06-19T12:08:19;97327.66;;;27.30;43.92
62025;BME280;47978;49.118;12.146;2023-06-19T12:12:22;97312.97;;;26.41;42.95
62025;BME280;47978;49.118;12.146;2023-06-19T12:16:24;97306.09;;;26.39;44.81
62025;BME280;47978;49.118;12.146;2023-06-19T12:20:25;97300.75;;;27.42;43.56
62025;BME280;47978;49.118;12.146;2023-06-19T12:24:27;97302.63;;;27.52;43.33
62025;BME280;47978;49.118;12.146;2023-06-19T12:28:30;97292.34;;;27.65;41.86
62025;BME280;47978;49.118;12.146;2023-06-19T12:32:32;97288.53;;;28.10;41.63
62025;BME280;47978;49.118;12.146;2023-06-19T12:36:34;97285.41;;;27.66;41.28
62025;BME280;47978;49.118;12.146;2023-06-19T12:40:35;97281.88;;;27.58;42.01
62025;BME280;47978;49.118;12.146;2023-06-19T12:44:39;97281.72;;;27.39;41.18
62025;BME280;47978;49.118;12.146;2023-06-19T12:48:40;97261.25;;;27.85;41.46
62025;BME280;47978;49.118;12.146;2023-06-19T12:52:42;97270.44;;;27.96;41.86
62025;BME280;47978;49.118;12.146;2023-06-19T12:56:43;97270.19;;;28.14;41.52
62025;BME280;47978;49.118;12.146;2023-06-19T13:00:46;97271.25;;;27.97;43.17
62025;BME280;47978;49.118;12.146;2023-06-19T13:04:48;97263.03;;;28.02;43.54
62025;BME280;47978;49.118;12.146;2023-06-19T13:08:50;97257.78;;;28.28;40.93
62025;BME280;47978;49.118;12.146;2023-06-19T13:12:51;97263.69;;;28.41;41.04
62025;BME280;47978;49.118;12.146;2023-06-19T13:16:54;97256.44;;;28.36;40.50
62025;BME280;47978;49.118;12.146;2023-06-19T13:20:56;97266.00;;;28.22;39.44
62025;BME280;47978;49.118;12.146;2023-06-19T13:24:57;97258.13;;;28.61;39.27
62025;BME280;47978;49.118;12.146;2023-06-19T13:28:59;97256.06;;;28.61;39.37
62025;BME280;47978;49.118;12.146;2023-06-19T13:33:02;97259.34;;;28.33;40.27
62025;BME280;47978;49.118;12.146;2023-06-19T13:37:05;97263.94;;;28.23;40.85
62025;BME280;47978;49.118;12.146;2023-06-19T13:41:07;97260.31;;;28.22;40.66
62025;BME280;47978;49.118;12.146;2023-06-19T13:45:09;97249.34;;;27.94;39.92
62025;BME280;47978;49.118;12.146;2023-06-19T13:49:12;97256.50;;;28.06;42.81
62025;BME280;47978;49.118;12.146;2023-06-19T13:53:14;97238.66;;;28.79;39.96
62025;BME280;47978;49.118;12.146;2023-06-19T13:57:15;97245.59;;;29.02;39.94
62025;BME280;47978;49.118;12.146;2023-06-19T14:01:17;97236.47;;;28.40;38.75
62025;BME280;47978;49.118;12.146;2023-06-19T14:05:20;97236.50;;;29.10;39.89
62025;BME280;47978;49.118;12.146;2023-06-19T14:09:22;97220.38;;;28.57;38.67
62025;BME280;47978;49.118;12.146;2023-06-19T14:13:23;97224.16;;;29.17;39.33
62025;BME280;47978;49.118;12.146;2023-06-19T14:17:25;97206.06;;;29.27;39.52
62025;BME280;47978;49.118;12.146;2023-06-19T14:21:28;97209.03;;;29.00;38.59
62025;BME280;47978;49.118;12.146;2023-06-19T14:25:30;97206.13;;;29.24;39.64
62025;BME280;47978;49.118;12.146;2023-06-19T14:29:31;97204.59;;;29.19;39.15
62025;BME280;47978;49.118;12.146;2023-06-19T14:33:33;97203.66;;;28.82;38.13
62025;BME280;47978;49.118;12.146;2023-06-19T14:37:36;97200.34;;;29.47;39.48
62025;BME280;47978;49.118;12.146;2023-06-19T14:41:38;97192.69;;;29.24;39.04
62025;BME280;47978;49.118;12.146;2023-06-19T14:45:40;97184.81;;;29.32;38.24
62025;BME280;47978;49.118;12.146;2023-06-19T14:49:41;97193.69;;;29.14;38.67
62025;BME280;47978;49.118;12.146;2023-06-19T14:53:44;97192.31;;;29.42;37.84
62025;BME280;47978;49.118;12.146;2023-06-19T14:57:46;97194.66;;;29.07;38.61
62025;BME280;47978;49.118;12.146;2023-06-19T15:01:48;97198.25;;;28.88;39.37
62025;BME280;47978;49.118;12.146;2023-06-19T15:05:49;97194.81;;;29.20;39.17
62025;BME280;47978;49.118;12.146;2023-06-19T15:09:53;97175.47;;;28.88;37.98
62025;BME280;47978;49.118;12.146;2023-06-19T15:13:54;97172.47;;;29.39;38.63
62025;BME280;47978;49.118;12.146;2023-06-19T15:17:56;97173.78;;;29.14;39.05
62025;BME280;47978;49.118;12.146;2023-06-19T15:21:58;97171.88;;;29.27;38.30
62025;BME280;47978;49.118;12.146;2023-06-19T15:26:01;97161.22;;;29.11;39.26
62025;BME280;47978;49.118;12.146;2023-06-19T15:30:03;97154.09;;;29.40;38.59
62025;BME280;47978;49.118;12.146;2023-06-19T15:34:05;97159.09;;;29.16;38.67
62025;BME280;47978;49.118;12.146;2023-06-19T15:38:07;97169.03;;;29.07;39.99
62025;BME280;47978;49.118;12.146;2023-06-19T15:42:10;97160.06;;;28.85;40.38
62025;BME280;47978;49.118;12.146;2023-06-19T15:46:13;97156.28;;;28.48;38.32
62025;BME280;47978;49.118;12.146;2023-06-19T15:50:15;97159.34;;;28.81;38.92
62025;BME280;47978;49.118;12.146;2023-06-19T15:54:17;97156.34;;;28.88;39.11
62025;BME280;47978;49.118;12.146;2023-06-19T15:58:20;97157.66;;;28.64;39.20
62025;BME280;47978;49.118;12.146;2023-06-19T16:02:21;97163.31;;;28.40;40.90
62025;BME280;47978;49.118;12.146;2023-06-19T16:06:23;97152.06;;;28.57;41.19
62025;BME280;47978;49.118;12.146;2023-06-19T16:10:25;97147.75;;;28.48;39.18
62025;BME280;47978;49.118;12.146;2023-06-19T16:14:28;97142.94;;;28.45;39.44
62025;BME280;47978;49.118;12.146;2023-06-19T16:18:30;97144.03;;;28.95;40.08
62025;BME280;47978;49.118;12.146;2023-06-19T16:22:31;97139.22;;;28.92;40.26
62025;BME280;47978;49.118;12.146;2023-06-19T16:26:33;97136.50;;;28.85;40.00
62025;BME280;47978;49.118;12.146;2023-06-19T16:30:36;97136.34;;;28.72;40.25
62025;BME280;47978;49.118;12.146;2023-06-19T16:34:38;97139.31;;;28.65;39.68
62025;BME280;47978;49.118;12.146;2023-06-19T16:38:39;97132.34;;;28.89;40.16
62025;BME280;47978;49.118;12.146;2023-06-19T16:42:41;97132.00;;;28.40;40.30
62025;BME280;47978;49.118;12.146;2023-06-19T16:46:44;97130.88;;;28.61;41.24
62025;BME280;47978;49.118;12.146;2023-06-19T16:50:45;97132.84;;;28.84;40.35
62025;BME280;47978;49.118;12.146;2023-06-19T16:54:47;97135.84;;;28.77;39.72
62025;BME280;47978;49.118;12.146;2023-06-19T16:58:49;97128.91;;;28.58;39.98
62025;BME280;47978;49.118;12.146;2023-06-19T17:02:52;97144.03;;;28.28;41.81
62025;BME280;47978;49.118;12.146;2023-06-19T17:06:54;97144.41;;;28.07;42.56
62025;BME280;47978;49.118;12.146;2023-06-19T17:10:55;97144.25;;;27.90;42.36
62025;BME280;47978;49.118;12.146;2023-06-19T17:14:57;97144.19;;;27.67;45.63
62025;BME280;47978;49.118;12.146;2023-06-19T17:19:00;97149.63;;;27.23;48.04
62025;BME280;47978;49.118;12.146;2023-06-19T17:23:01;97149.44;;;27.03;48.47
62025;BME280;47978;49.118;12.146;2023-06-19T17:27:04;97154.19;;;26.79;49.75
62025;BME280;47978;49.118;12.146;2023-06-19T17:31:05;97159.78;;;26.86;48.48
62025;BME280;47978;49.118;12.146;2023-06-19T17:35:08;97163.16;;;26.29;50.66
62025;BME280;47978;49.118;12.146;2023-06-19T17:39:10;97162.09;;;26.12;52.31
62025;BME280;47978;49.118;12.146;2023-06-19T17:43:12;97160.50;;;26.11;51.46
62025;BME280;47978;49.118;12.146;2023-06-19T17:47:14;97157.50;;;26.29;51.15
62025;BME280;47978;49.118;12.146;2023-06-19T17:51:17;97167.19;;;26.32;51.42
62025;BME280;47978;49.118;12.146;2023-06-19T17:55:18;97168.38;;;25.86;54.01
62025;BME280;47978;49.118;12.146;2023-06-19T17:59:20;97166.16;;;26.11;53.30
62025;BME280;47978;49.118;12.146;2023-06-19T18:03:21;97160.66;;;25.93;54.17
62025;BME280;47978;49.118;12.146;2023-06-19T18:07:25;97176.03;;;25.96;53.98
62025;BME280;47978;49.118;12.146;2023-06-19T18:11:26;97175.25;;;25.81;54.27
62025;BME280;47978;49.118;12.146;2023-06-19T18:15:28;97173.59;;;25.13;57.87
62025;BME280;47978;49.118;12.146;2023-06-19T18:19:29;97168.06;;;24.78;58.99
62025;BME280;47978;49.118;12.146;2023-06-19T18:23:32;97166.88;;;24.64;59.87
62025;BME280;47978;49.118;12.146;2023-06-19T18:27:34;97174.56;;;24.60;59.73
62025;BME280;47978;49.118;12.146;2023-06-19T18:31:36;97177.81;;;24.48;60.68
62025;BME280;47978;49.118;12.146;2023-06-19T18:35:37;97178.63;;;24.45;60.30
62025;BME280;47978;49.118;12.146;2023-06-19T18:39:40;97170.53;;;24.33;60.52
62025;BME280;47978;49.118;12.146;2023-06-19T18:43:42;97173.78;;;24.10;61.24
62025;BME280;47978;49.118;12.146;2023-06-19T18:47:43;97173.78;;;23.92;61.88
62025;BME280;47978;49.118;12.146;2023-06-19T18:51:45;97162.81;;;23.65;63.04
62025;BME280;47978;49.118;12.146;2023-06-19T18:55:48;97159.56;;;23.56;62.98
62025;BME280;47978;49.118;12.146;2023-06-19T18:59:50;97153.50;;;23.43;63.38
62025;BME280;47978;49.118;12.146;2023-06-19T19:03:51;97163.13;;;23.24;64.27
62025;BME280;47978;49.118;12.146;2023-06-19T19:07:53;97169.03;;;22.94;64.98
62025;BME280;47978;49.118;12.146;2023-06-19T19:11:56;97163.63;;;22.67;65.40
62025;BME280;47978;49.118;12.146;2023-06-19T19:15:57;97158.63;;;22.39;66.75
62025;BME280;47978;49.118;12.146;2023-06-19T19:19:59;97164.88;;;22.15;67.51
62025;BME280;47978;49.118;12.146;2023-06-19T19:24:01;97176.41;;;21.95;68.13
62025;BME280;47978;49.118;12.146;2023-06-19T19:28:04;97177.03;;;21.74;68.54
62025;BME280;47978;49.118;12.146;2023-06-19T19:32:06;97195.38;;;21.61;68.48
62025;BME280;47978;49.118;12.146;2023-06-19T19:36:08;97202.00;;;21.42;69.00
62025;BME280;47978;49.118;12.146;2023-06-19T19:40:10;97207.06;;;21.29;68.83
62025;BME280;47978;49.118;12.146;2023-06-19T19:44:13;97208.47;;;21.13;69.05
62025;BME280;47978;49.118;12.146;2023-06-19T19:48:15;97215.91;;;20.98;69.47
62025;BME280;47978;49.118;12.146;2023-06-19T19:52:17;97226.97;;;20.83;69.02
62025;BME280;47978;49.118;12.146;2023-06-19T19:56:18;97226.84;;;20.76;69.57
62025;BME280;47978;49.118;12.146;2023-06-19T20:00:21;97237.41;;;20.56;70.17
62025;BME280;47978;49.118;12.146;2023-06-19T20:04:23;97247.03;;;20.32;70.87
62025;BME280;47978;49.118;12.146;2023-06-19T20:08:25;97256.22;;;20.29;71.15
62025;BME280;47978;49.118;12.146;2023-06-19T20:12:26;97263.06;;;20.09;72.11
62025;BME280;47978;49.118;12.146;2023-06-19T20:16:29;97259.59;;;19.92;71.69
62025;BME280;47978;49.118;12.146;2023-06-19T20:20:31;97259.41;;;19.62;73.48
62025;BME280;47978;49.118;12.146;2023-06-19T20:24:33;97263.81;;;19.44;73.88
62025;BME280;47978;49.118;12.146;2023-06-19T20:28:35;97260.31;;;19.27;74.65
62025;BME280;47978;49.118;12.146;2023-06-19T20:32:38;97267.53;;;19.09;75.55
62025;BME280;47978;49.118;12.146;2023-06-19T20:36:40;97247.19;;;18.93;76.18
62025;BME280;47978;49.118;12.146;2023-06-19T20:40:41;97251.13;;;18.92;75.16
62025;BME280;47978;49.118;12.146;2023-06-19T20:44:44;97253.19;;;18.95;75.00
62025;BME280;47978;49.118;12.146;2023-06-19T20:48:47;97236.47;;;18.79;75.66
62025;BME280;47978;49.118;12.146;2023-06-19T20:52:48;97237.00;;;18.69;75.59
62025;BME280;47978;49.118;12.146;2023-06-19T20:56:50;97248.16;;;18.49;76.60
62025;BME280;47978;49.118;12.146;2023-06-19T21:00:52;97254.03;;;18.44;75.95
62025;BME280;47978;49.118;12.146;2023-06-19T21:04:55;97244.28;;;18.38;76.71